createdAt,value
2022-10-01T00:04:36.884Z,85.11
2022-10-01T00:09:39.057Z,85.31
2022-10-01T00:14:41.236Z,85.40
2022-10-01T00:19:43.411Z,85.16
2022-10-01T00:24:47.430Z,85.09
2022-10-01T00:29:49.587Z,84.94
2022-10-01T00:34:52.288Z,85.19
2022-10-01T00:39:54.622Z,85.10
2022-10-01T00:44:56.746Z,85.09
2022-10-01T00:50:18.063Z,85.38
2022-10-01T00:55:31.087Z,85.40
2022-10-01T01:00:33.344Z,85.15
2022-10-01T01:05:35.731Z,85.02
2022-10-01T01:10:49.555Z,85.08
2022-10-01T01:15:55.579Z,85.32
2022-10-01T01:21:17.176Z,85.53
2022-10-01T01:26:33.459Z,85.19
2022-10-01T01:31:42.211Z,85.39
2022-10-01T01:36:47.546Z,85.05
2022-10-01T01:41:53.570Z,85.26
2022-10-01T01:46:59.076Z,85.04
2022-10-01T01:52:09.015Z,85.34
2022-10-01T01:57:13.364Z,85.00
2022-10-01T02:02:22.995Z,85.01
2022-10-01T02:07:42.502Z,85.68
2022-10-01T02:13:04.094Z,85.12
2022-10-01T02:18:17.355Z,85.42
2022-10-01T02:23:25.871Z,85.47
2022-10-01T02:28:29.045Z,85.20
2022-10-01T02:33:33.681Z,85.18
2022-10-01T02:38:38.051Z,85.51
2022-10-01T02:43:51.578Z,85.68
2022-10-01T02:48:53.734Z,85.49
2022-10-01T02:54:02.100Z,85.23
2022-10-01T02:59:07.662Z,85.28
2022-10-01T03:04:09.834Z,85.23
2022-10-01T03:09:12.342Z,85.23
2022-10-01T03:14:14.508Z,85.26
2022-10-01T03:19:16.894Z,85.17
2022-10-01T03:24:19.008Z,85.09
2022-10-01T03:29:21.124Z,85.17
2022-10-01T03:34:23.327Z,85.35
2022-10-01T03:39:25.597Z,85.24
2022-10-01T03:44:28.649Z,85.24
2022-10-01T03:49:30.804Z,85.43
2022-10-01T03:54:33.264Z,85.46
2022-10-01T03:59:36.357Z,85.45
2022-10-01T04:04:38.513Z,85.10
2022-10-01T04:09:40.639Z,85.29
2022-10-01T04:14:42.795Z,85.41
2022-10-01T04:19:44.904Z,85.63
2022-10-01T04:24:47.035Z,85.56
2022-10-01T04:29:49.214Z,85.53
2022-10-01T04:34:54.156Z,85.25
2022-10-01T04:39:56.583Z,85.60
2022-10-01T04:44:58.840Z,85.41
2022-10-01T04:50:01.017Z,85.72
2022-10-01T04:55:03.263Z,85.77
2022-10-01T05:00:07.671Z,85.55
2022-10-01T05:05:10.028Z,85.49
2022-10-01T05:10:14.644Z,85.91
2022-10-01T05:15:17.270Z,85.57
2022-10-01T05:20:21.759Z,85.51
2022-10-01T05:25:24.152Z,85.57
2022-10-01T05:30:26.280Z,85.73
2022-10-01T05:35:29.068Z,85.98
2022-10-01T05:40:31.384Z,85.74
2022-10-01T05:45:33.809Z,85.50
2022-10-01T05:50:40.423Z,86.03
2022-10-01T05:55:43.191Z,85.73
2022-10-01T06:00:45.383Z,85.63
2022-10-01T06:05:47.586Z,85.84
2022-10-01T06:10:50.126Z,85.71
2022-10-01T06:15:53.282Z,86.06
2022-10-01T06:20:55.579Z,85.82
2022-10-01T06:25:59.901Z,86.07
2022-10-01T06:31:03.285Z,86.37
2022-10-01T06:36:05.695Z,85.97
2022-10-01T06:41:08.538Z,86.12
2022-10-01T06:46:11.399Z,85.98
2022-10-01T06:51:13.785Z,86.27
2022-10-01T06:56:16.068Z,86.41
2022-10-01T07:01:21.178Z,86.17
2022-10-01T07:06:23.396Z,86.41
2022-10-01T07:11:27.430Z,86.17
2022-10-01T07:16:29.691Z,86.20
2022-10-01T07:21:32.224Z,86.20
2022-10-01T07:26:34.682Z,86.34
2022-10-01T07:31:39.289Z,86.65
2022-10-01T07:36:42.963Z,86.51
2022-10-01T07:41:45.185Z,86.37
2022-10-01T07:46:48.649Z,86.59
2022-10-01T07:51:51.614Z,86.97
2022-10-01T07:56:56.029Z,86.58
2022-10-01T08:01:58.760Z,86.73
2022-10-01T08:07:00.934Z,87.18
2022-10-01T08:12:03.372Z,87.08
2022-10-01T08:17:07.838Z,87.23
2022-10-01T08:22:10.151Z,87.08
2022-10-01T08:27:12.412Z,87.46
2022-10-01T08:32:14.913Z,87.46
2022-10-01T08:37:19.955Z,87.47
2022-10-01T08:42:48.885Z,87.69
2022-10-01T08:48:04.163Z,87.57
2022-10-01T08:53:15.802Z,87.57
2022-10-01T08:58:28.598Z,87.60
2022-10-01T09:03:32.118Z,87.75
2022-10-01T09:09:06.525Z,87.78
2022-10-01T09:14:27.213Z,88.18
2022-10-01T09:19:57.520Z,87.81
2022-10-01T09:25:21.843Z,87.88
2022-10-01T09:30:27.360Z,87.94
2022-10-01T09:35:46.231Z,88.05
2022-10-01T09:40:58.887Z,87.94
2022-10-01T09:46:04.948Z,87.75
2022-10-01T09:51:28.625Z,88.14
2022-10-01T09:56:39.646Z,87.88
2022-10-01T10:01:48.295Z,87.76
2022-10-01T10:06:51.925Z,87.75
2022-10-01T10:11:56.730Z,87.52
2022-10-01T10:17:06.157Z,87.67
2022-10-01T10:22:25.137Z,87.88
2022-10-01T10:27:30.102Z,87.82
2022-10-01T10:32:32.393Z,87.57
2022-10-01T10:37:42.987Z,87.32
2022-10-01T10:42:50.954Z,87.62
2022-10-01T10:47:57.985Z,87.45
2022-10-01T10:53:00.211Z,87.31
2022-10-01T10:58:15.343Z,87.91
2022-10-01T11:03:21.605Z,87.60
2022-10-01T11:08:27.928Z,87.67
2022-10-01T11:13:55.052Z,87.93
2022-10-01T11:19:03.236Z,87.87
2022-10-01T11:24:14.618Z,88.12
2022-10-01T11:29:26.700Z,87.79
2022-10-01T11:34:42.204Z,87.87
2022-10-01T11:39:47.910Z,87.73
2022-10-01T11:45:00.537Z,87.76
2022-10-01T11:50:05.981Z,87.82
2022-10-01T11:55:49.210Z,88.13
2022-10-01T12:01:06.098Z,88.26
2022-10-01T12:06:14.919Z,88.19
2022-10-01T12:11:22.328Z,88.32
2022-10-01T12:16:46.416Z,88.61
2022-10-01T12:22:11.055Z,88.38
2022-10-01T12:27:44.848Z,88.28
2022-10-01T12:32:53.324Z,88.03
2022-10-01T12:38:31.048Z,88.27
2022-10-01T12:44:06.800Z,88.44
2022-10-01T12:49:38.448Z,88.97
2022-10-01T12:54:43.753Z,88.54
2022-10-01T13:00:05.278Z,88.69
2022-10-01T13:05:38.132Z,88.51
2022-10-01T13:10:49.435Z,88.62
2022-10-01T13:16:20.995Z,88.24
2022-10-01T13:21:50.954Z,88.35
2022-10-01T13:26:56.199Z,88.18
2022-10-01T13:32:00.512Z,88.32
2022-10-01T13:37:21.588Z,88.19
2022-10-01T13:42:27.344Z,88.15
2022-10-01T13:47:29.638Z,87.86
2022-10-01T13:52:33.099Z,88.11
2022-10-01T13:57:37.456Z,87.94
2022-10-01T14:02:43.137Z,87.91
2022-10-01T14:07:46.921Z,87.99
2022-10-01T14:13:07.632Z,87.95
2022-10-01T14:18:16.824Z,87.94
2022-10-01T14:23:21.168Z,88.22
2022-10-01T14:28:23.934Z,87.84
2022-10-01T14:33:40.675Z,87.97
2022-10-01T14:38:42.943Z,88.14
2022-10-01T14:43:45.225Z,88.30
2022-10-01T14:48:57.990Z,88.18
2022-10-01T14:54:00.791Z,87.97
2022-10-01T14:59:05.674Z,87.88
2022-10-01T15:04:15.465Z,88.00
2022-10-01T15:09:19.356Z,88.11
2022-10-01T15:14:24.175Z,88.02
2022-10-01T15:19:26.446Z,87.91
2022-10-01T15:24:42.121Z,87.88
2022-10-01T15:29:44.670Z,87.61
2022-10-01T15:34:55.717Z,87.64
2022-10-01T15:39:59.012Z,87.86
2022-10-01T15:45:07.398Z,87.51
2022-10-01T15:50:12.636Z,87.60
2022-10-01T15:55:36.596Z,87.43
2022-10-01T16:00:43.879Z,87.51
2022-10-01T16:05:47.803Z,87.19
2022-10-01T16:11:12.998Z,87.76
2022-10-01T16:16:41.471Z,87.23
2022-10-01T16:21:43.826Z,87.57
2022-10-01T16:26:47.739Z,87.34
2022-10-01T16:31:50.367Z,87.50
2022-10-01T16:36:52.608Z,87.24
2022-10-01T16:42:19.197Z,87.64
2022-10-01T16:47:17.862Z,87.49
2022-10-01T16:52:20.120Z,87.53
2022-10-01T16:57:22.347Z,87.42
2022-10-01T17:02:24.598Z,87.77
2022-10-01T17:07:27.012Z,87.84
2022-10-01T17:12:30.317Z,87.54
2022-10-01T17:17:32.735Z,87.71
2022-10-01T17:22:35.361Z,87.74
2022-10-01T17:27:37.713Z,87.72
2022-10-01T17:32:40.591Z,87.64
2022-10-01T17:37:45.876Z,87.77
2022-10-01T17:42:48.309Z,87.66
2022-10-01T17:47:54.232Z,87.60
2022-10-01T17:52:56.550Z,87.52
2022-10-01T17:58:04.004Z,87.54
2022-10-01T18:03:09.138Z,87.61
2022-10-01T18:08:11.606Z,87.86
2022-10-01T18:13:20.353Z,87.80
2022-10-01T18:19:51.308Z,87.94
2022-10-01T18:23:48.051Z,87.75
2022-10-01T18:28:52.849Z,88.19
2022-10-01T18:33:59.409Z,87.76
2022-10-01T18:39:32.909Z,87.96
2022-10-01T18:44:36.470Z,87.82
2022-10-01T18:50:31.121Z,88.19
2022-10-01T18:55:40.561Z,87.90
2022-10-01T19:01:18.442Z,88.67
2022-10-01T19:06:41.485Z,88.67
2022-10-01T19:12:13.202Z,88.74
2022-10-01T19:17:27.023Z,88.55
2022-10-01T19:23:07.207Z,88.84
2022-10-01T19:28:29.436Z,88.88
2022-10-01T19:33:36.510Z,88.50
2022-10-01T19:38:41.258Z,88.86
2022-10-01T19:44:18.942Z,88.37
2022-10-01T19:49:34.575Z,88.57
2022-10-01T19:54:42.443Z,88.09
2022-10-01T19:59:44.886Z,88.22
2022-10-01T20:04:56.827Z,88.67
2022-10-01T20:10:07.597Z,88.40
2022-10-01T20:15:23.535Z,88.43
2022-10-01T20:20:34.316Z,88.38
2022-10-01T20:26:01.650Z,88.26
2022-10-01T20:31:22.784Z,88.14
2022-10-01T20:37:09.360Z,88.34
2022-10-01T20:42:23.748Z,88.41
2022-10-01T20:47:34.023Z,88.44
2022-10-01T20:53:11.345Z,88.31
2022-10-01T20:58:29.600Z,88.22
2022-10-01T21:03:35.037Z,87.91
2022-10-01T21:08:53.819Z,88.27
2022-10-01T21:14:03.517Z,88.43
2022-10-01T21:19:32.953Z,88.33
2022-10-01T21:24:54.316Z,88.51
2022-10-01T21:30:09.468Z,88.43
2022-10-01T21:35:22.502Z,88.37
2022-10-01T21:40:25.153Z,88.52
2022-10-01T21:45:42.201Z,88.55
2022-10-01T21:50:51.935Z,88.34
2022-10-01T21:56:15.966Z,88.64
2022-10-01T22:01:27.382Z,88.79
2022-10-01T22:06:45.275Z,88.42
2022-10-01T22:11:50.975Z,88.34
2022-10-01T22:16:53.182Z,88.38
2022-10-01T22:22:21.259Z,88.36
2022-10-01T22:27:58.124Z,88.59
2022-10-01T22:33:40.804Z,88.30
2022-10-01T22:38:47.548Z,88.28
2022-10-01T22:43:50.303Z,88.00
2022-10-01T22:49:11.811Z,87.99
2022-10-01T22:54:13.949Z,88.10
2022-10-01T22:59:36.369Z,88.13
2022-10-01T23:05:09.955Z,88.00
2022-10-01T23:10:34.006Z,87.70
2022-10-01T23:15:46.643Z,87.24
2022-10-01T23:21:10.082Z,87.21
2022-10-01T23:26:36.522Z,87.17
2022-10-01T23:31:57.556Z,86.98
2022-10-01T23:37:07.748Z,86.67
2022-10-01T23:42:35.569Z,86.31
2022-10-01T23:48:24.289Z,86.27
2022-10-01T23:53:52.510Z,85.60
2022-10-01T23:59:23.214Z,85.74
